Time;durP1;ratioP1;P1;durP2;ratioP2;P2;SDS_P1;SDS_P2;PMS_P1;PMS_P2;Temp;Humidity;BMP_temperature;BMP_pressure;BME280_temperature;BME280_humidity;BME280_pressure;Samples;Min_cycle;Max_cycle;Signal;HPM_P1;HPM_P2
2022/06/01 00:05:44;;;;;;;6.32;1.90;;;24.90;28.50;;;;;;20928239;28;20504;-60
2022/06/01 00:15:46;;;;;;;4.17;1.30;;;24.80;28.60;;;;;;20927009;28;20053;-60
2022/06/01 00:25:49;;;;;;;4.40;1.70;;;24.60;28.70;;;;;;20926629;28;20049;-61
2022/06/01 00:35:50;;;;;;;6.40;1.80;;;24.40;29.10;;;;;;20925833;28;20381;-62
2022/06/01 00:45:53;;;;;;;4.17;1.40;;;24.20;29.40;;;;;;20924982;28;20041;-60
2022/06/01 00:55:59;;;;;;;4.13;1.60;;;24.20;29.60;;;;;;20922972;28;20341;-62
2022/06/01 01:06:15;;;;;;;2.38;1.00;;;24.20;29.90;;;;;;20923283;28;20052;-61
2022/06/01 01:16:20;;;;;;;8.38;2.42;;;24.00;30.60;;;;;;20922227;28;20433;-59
2022/06/01 01:26:25;;;;;;;6.57;1.80;;;23.70;30.70;;;;;;20921490;28;20095;-62
2022/06/01 01:36:36;;;;;;;5.63;1.77;;;23.60;31.20;;;;;;20920856;28;20051;-61
2022/06/01 01:46:47;;;;;;;4.67;1.40;;;23.50;31.70;;;;;;20920025;28;20134;-60
2022/06/01 01:57:38;;;;;;;4.47;1.35;;;23.40;31.30;;;;;;20918723;28;20104;-60
2022/06/01 02:07:55;;;;;;;3.58;1.45;;;23.50;31.40;;;;;;20918043;28;20049;-59
2022/06/01 02:18:21;;;;;;;5.28;1.95;;;23.30;32.80;;;;;;20918229;28;20075;-59
2022/06/01 02:28:41;;;;;;;7.05;1.98;;;23.20;32.20;;;;;;20915129;28;20485;-61
2022/06/01 02:39:05;;;;;;;5.82;1.65;;;23.10;32.60;;;;;;20917566;28;20102;-62
2022/06/01 02:49:26;;;;;;;7.13;2.40;;;23.00;32.80;;;;;;20916000;28;20520;-61
2022/06/01 02:59:48;;;;;;;5.43;2.90;;;23.00;33.20;;;;;;20914382;28;20053;-59
2022/06/01 03:10:09;;;;;;;5.82;2.03;;;22.90;33.00;;;;;;20914389;28;20486;-61
2022/06/01 03:20:21;;;;;;;6.93;2.17;;;22.80;33.10;;;;;;20912053;28;20445;-59
2022/06/01 03:30:29;;;;;;;5.07;2.10;;;22.80;33.30;;;;;;20911848;28;20049;-59
2022/06/01 03:40:37;;;;;;;6.80;1.63;;;22.70;33.40;;;;;;20912278;28;20049;-60
2022/06/01 03:50:44;;;;;;;4.35;2.10;;;22.60;33.80;;;;;;20911703;28;20064;-60
2022/06/01 04:00:49;;;;;;;5.93;1.92;;;22.50;34.30;;;;;;20910883;28;20048;-57
2022/06/01 04:10:54;;;;;;;9.18;2.30;;;22.10;34.70;;;;;;20911790;28;20048;-57
2022/06/01 04:21:01;;;;;;;7.93;2.40;;;22.20;34.50;;;;;;20911972;28;20466;-58
2022/06/01 04:31:05;;;;;;;6.53;3.47;;;22.30;34.70;;;;;;20920022;28;20493;-62
2022/06/01 04:41:09;;;;;;;11.45;3.78;;;22.20;34.60;;;;;;20926072;28;20044;-59
2022/06/01 04:51:11;;;;;;;5.97;2.40;;;22.10;34.80;;;;;;20955605;28;20051;-60
2022/06/01 05:01:15;;;;;;;8.55;2.90;;;21.80;35.00;;;;;;20923630;28;20052;-61
2022/06/01 05:11:17;;;;;;;12.00;4.77;;;21.60;35.30;;;;;;20922494;28;20064;-60
2022/06/01 05:21:19;;;;;;;5.50;2.67;;;21.70;35.40;;;;;;20922413;28;20045;-59
2022/06/01 05:31:21;;;;;;;15.43;3.30;;;21.70;35.10;;;;;;20921398;28;20052;-59
2022/06/01 05:41:23;;;;;;;8.77;2.53;;;21.70;35.20;;;;;;20918456;28;20045;-59
2022/06/01 05:51:25;;;;;;;6.13;2.72;;;21.70;35.30;;;;;;20917925;28;20446;-59
2022/06/01 06:01:26;;;;;;;7.57;3.08;;;21.60;35.90;;;;;;20918361;28;20053;-61
2022/06/01 06:11:35;;;;;;;11.93;4.03;;;21.60;36.20;;;;;;20917051;28;20122;-58
2022/06/01 06:21:37;;;;;;;11.55;2.65;;;21.60;35.80;;;;;;20917196;28;20056;-60
2022/06/01 06:31:39;;;;;;;10.05;3.35;;;21.60;36.00;;;;;;20915562;28;20084;-61
2022/06/01 06:41:43;;;;;;;9.07;3.40;;;21.70;35.70;;;;;;20947357;28;20102;-62
2022/06/01 06:51:44;;;;;;;6.80;3.07;;;21.90;35.80;;;;;;20913493;28;20084;-58
2022/06/01 07:01:46;;;;;;;7.00;2.20;;;22.40;34.40;;;;;;20913768;28;20501;-61
2022/06/01 07:11:48;;;;;;;9.10;2.90;;;23.20;33.20;;;;;;20913906;28;20462;-61
2022/06/01 07:21:50;;;;;;;;;;;23.70;32.10;;;;;;20913415;28;20049;-59
2022/06/01 07:31:53;;;;;;;3.30;1.60;;;24.30;31.10;;;;;;20912069;28;19920;-59
2022/06/01 07:52:19;;;;;;;4.78;2.42;;;25.30;29.70;;;;;;20911959;28;20477;-61
2022/06/01 08:02:22;;;;;;;8.88;2.13;;;25.60;29.50;;;;;;20915407;28;20056;-62
2022/06/01 08:22:44;;;;;;;4.38;2.15;;;26.10;29.40;;;;;;20926805;28;20049;-61
2022/06/01 08:32:48;;;;;;;5.88;2.67;;;26.50;29.30;;;;;;20924583;28;20563;-63
2022/06/01 08:42:58;;;;;;;9.13;2.05;;;26.70;29.60;;;;;;20926275;28;20459;-61
2022/06/01 08:53:03;;;;;;;9.48;2.28;;;27.00;29.70;;;;;;20924932;28;20056;-60
2022/06/01 09:03:26;;;;;;;5.78;2.63;;;27.00;30.70;;;;;;20922920;28;20057;-61
2022/06/01 09:13:54;;;;;;;4.25;1.90;;;27.20;31.00;;;;;;20919895;28;20512;-58
2022/06/01 09:23:56;;;;;;;10.45;3.97;;;27.10;31.00;;;;;;20922090;28;20053;-58
2022/06/01 09:34:32;;;;;;;5.05;1.63;;;27.00;29.40;;;;;;20921297;28;20053;-56
2022/06/01 09:44:34;;;;;;;6.93;2.00;;;26.90;29.90;;;;;;20921103;28;20045;-57
2022/06/01 09:54:43;;;;;;;5.45;2.35;;;27.10;28.00;;;;;;20916719;28;20542;-56
2022/06/01 10:15:22;;;;;;;4.18;1.60;;;27.60;28.40;;;;;;20856568;28;20060;-57
2022/06/01 10:25:49;;;;;;;5.65;1.58;;;27.50;28.50;;;;;;20834606;28;20049;-60
2022/06/01 10:35:51;;;;;;;4.15;2.03;;;27.40;29.20;;;;;;20871904;28;20045;-57
2022/06/01 10:46:00;;;;;;;3.40;1.52;;;27.40;28.80;;;;;;20913508;28;20082;-60
2022/06/01 10:56:02;;;;;;;7.80;3.35;;;27.70;28.00;;;;;;20912062;28;20052;-60
2022/06/01 11:06:21;;;;;;;5.90;1.50;;;27.60;29.30;;;;;;20885390;28;20140;-60
2022/06/01 11:16:49;;;;;;;3.70;1.17;;;27.60;30.30;;;;;;20898832;28;20051;-59
2022/06/01 11:27:03;;;;;;;6.32;2.00;;;27.80;29.10;;;;;;20912122;28;20051;-58
2022/06/01 11:37:14;;;;;;;4.75;2.95;;;27.90;29.30;;;;;;20908967;28;20045;-58
2022/06/01 11:47:20;;;;;;;4.50;2.05;;;27.80;29.60;;;;;;20911849;28;20052;-55
2022/06/01 11:57:23;;;;;;;5.13;1.30;;;28.10;29.40;;;;;;20910085;28;20114;-60
2022/06/01 12:07:31;;;;;;;2.40;1.10;;;;;;;;;;20911450;28;20045;-56
2022/06/01 12:17:36;;;;;;;3.15;1.20;;;;;;;;;;20911497;28;20480;-55
2022/06/01 12:38:42;;;;;;;4.07;1.67;;;28.30;29.60;;;;;;20907491;28;20045;-70
2022/06/01 12:48:43;;;;;;;6.72;2.00;;;28.30;29.30;;;;;;20912974;28;20045;-63
2022/06/01 12:58:47;;;;;;;4.10;1.50;;;28.20;29.50;;;;;;20923327;28;20195;-64
2022/06/01 13:09:19;;;;;;;3.47;1.42;;;28.50;29.00;;;;;;20922592;28;20456;-64
2022/06/01 13:19:24;;;;;;;2.83;1.00;;;28.60;28.70;;;;;;20920404;28;20558;-65
2022/06/01 13:29:39;;;;;;;5.28;1.60;;;28.60;28.80;;;;;;20919663;28;20079;-63
2022/06/01 13:39:58;;;;;;;8.02;2.10;;;28.70;29.40;;;;;;20920766;28;20045;-62
2022/06/01 13:50:14;;;;;;;3.85;1.52;;;28.90;29.40;;;;;;20919095;28;20057;-60
2022/06/01 14:00:38;;;;;;;3.38;1.50;;;29.00;28.20;;;;;;20916958;28;20057;-64
2022/06/01 14:10:50;;;;;;;3.45;1.15;;;29.10;27.40;;;;;;20663037;28;20046;-68
2022/06/01 14:20:52;;;;;;;4.45;1.27;;;29.20;26.80;;;;;;20661882;28;20046;-66
2022/06/01 14:30:58;;;;;;;8.85;1.77;;;29.30;27.20;;;;;;20660934;28;20081;-66
2022/06/01 14:41:04;;;;;;;4.10;1.10;;;29.30;28.30;;;;;;20717010;28;20053;-61
2022/06/01 14:51:11;;;;;;;3.88;1.10;;;29.00;29.70;;;;;;20913868;28;20140;-61
2022/06/01 15:01:16;;;;;;;2.30;1.63;;;29.10;28.80;;;;;;20914640;28;20103;-64
2022/06/01 15:11:18;;;;;;;8.38;6.95;;;29.20;29.20;;;;;;20911692;28;20064;-61
2022/06/01 15:21:20;;;;;;;2.42;0.90;;;29.20;30.00;;;;;;20911992;28;20049;-66
2022/06/01 15:41:42;;;;;;;3.37;1.00;;;29.10;30.30;;;;;;20911712;28;20080;-59
2022/06/01 15:51:51;;;;;;;2.92;1.00;;;28.90;30.40;;;;;;20911399;28;20049;-58
2022/06/01 16:01:54;;;;;;;3.47;1.27;;;29.00;29.60;;;;;;20911043;28;20081;-57
2022/06/01 16:11:56;;;;;;;1.98;0.90;;;29.20;29.60;;;;;;20908542;28;20095;-60
2022/06/01 16:21:58;;;;;;;2.58;0.90;;;29.10;29.60;;;;;;20913524;28;20042;-57
2022/06/01 16:32:00;;;;;;;3.08;1.13;;;29.20;28.70;;;;;;20916718;28;20102;-61
2022/06/01 16:42:02;;;;;;;1.63;0.95;;;28.90;28.80;;;;;;20905613;28;20474;-62
2022/06/01 16:52:06;;;;;;;2.00;0.80;;;29.10;28.80;;;;;;20884877;28;20053;-65
2022/06/01 17:02:10;;;;;;;2.33;1.15;;;29.00;29.50;;;;;;20923272;28;20523;-64
2022/06/01 17:12:14;;;;;;;10.07;6.55;;;28.70;30.40;;;;;;20921806;28;20064;-55
2022/06/01 17:22:17;;;;;;;2.63;1.38;;;28.40;31.20;;;;;;20925077;28;20052;-73
2022/06/01 17:32:19;;;;;;;2.25;1.10;;;;;;;;;;20926979;28;20049;-71
2022/06/01 17:42:21;;;;;;;3.17;1.40;;;;;;;;;;20918007;28;20052;-74
2022/06/01 17:52:24;;;;;;;3.42;1.45;;;;;;;;;;20918245;28;20053;-73
2022/06/01 18:02:26;;;;;;;4.55;2.90;;;;;;;;;;20917494;28;20052;-73
2022/06/01 18:12:28;;;;;;;4.35;2.20;;;;;;;;;;20916029;28;20049;-61
2022/06/01 18:22:30;;;;;;;4.10;1.00;;;;;;;;;;20916974;28;20049;-57
2022/06/01 18:32:32;;;;;;;3.25;2.30;;;;;;;;;;20916197;28;20049;-58
2022/06/01 18:42:37;;;;;;;12.32;7.60;;;;;;;;;;20914353;28;20481;-57
2022/06/01 18:52:39;;;;;;;5.18;1.80;;;;;;;;;;20914195;28;20061;-56
2022/06/01 19:02:41;;;;;;;4.38;2.80;;;;;;;;;;20912269;28;20511;-58
2022/06/01 19:12:43;;;;;;;3.78;1.80;;;;;;;;;;20912185;28;20388;-58
2022/06/01 19:22:45;;;;;;;6.45;1.95;;;;;;;;;;20910700;28;20060;-56
2022/06/01 19:32:47;;;;;;;2.55;0.98;;;;;;;;;;20910623;28;20064;-54
2022/06/01 19:53:34;;;;;;;2.57;1.17;;;;;;;;;;20910064;28;20053;-67
2022/06/01 20:03:36;;;;;;;4.55;1.85;;;;;;;;;;20922273;28;20187;-67
2022/06/01 20:13:38;;;;;;;3.30;2.40;;;;;;;;;;20926909;28;20405;-69
2022/06/01 20:23:40;;;;;;;5.05;1.80;;;;;;;;;;20925726;28;20072;-68
2022/06/01 20:33:42;;;;;;;7.90;6.25;;;;;;;;;;20925390;28;20480;-69
2022/06/01 20:43:44;;;;;;;4.00;2.50;;;;;;;;;;20924991;28;20515;-69
2022/06/01 20:53:46;;;;;;;4.07;2.40;;;;;;;;;;20923523;28;20080;-66
2022/06/01 21:03:50;;;;;;;4.30;3.03;;;;;;;;;;20922884;28;20053;-62
2022/06/01 21:13:54;;;;;;;5.50;2.45;;;;;;;;;;20922846;28;20056;-63
2022/06/01 21:23:57;;;;;;;3.35;1.58;;;;;;;;;;20920936;28;20064;-65
2022/06/01 21:33:59;;;;;;;6.70;2.10;;;;;;;;;;20922611;28;20440;-61
2022/06/01 21:44:01;;;;;;;4.00;1.40;;;;;;;;;;20920110;28;20072;-69
2022/06/01 21:54:04;;;;;;;3.65;2.55;;;;;;;;;;20919260;28;20140;-69
2022/06/01 22:04:06;;;;;;;1.95;1.27;;;;;;;;;;20918349;28;20075;-63
2022/06/01 22:14:08;;;;;;;4.18;2.13;;;;;;;;;;20918933;28;20382;-64
2022/06/01 22:24:10;;;;;;;5.05;1.65;;;;;;;;;;20917276;28;20060;-71
2022/06/01 22:34:12;;;;;;;2.97;1.75;;;;;;;;;;20916523;28;20068;-65
2022/06/01 22:44:14;;;;;;;;;;;;;;;;;;20916028;28;20051;-69
2022/06/01 22:54:16;;;;;;;3.30;1.23;;;;;;;;;;20915346;28;20370;-66
2022/06/01 23:04:19;;;;;;;3.50;1.90;;;;;;;;;;20913778;28;20107;-63
2022/06/01 23:14:21;;;;;;;2.88;1.20;;;;;;;;;;20913893;28;20508;-61
2022/06/01 23:24:23;;;;;;;4.30;1.40;;;;;;;;;;20913243;28;20481;-69
2022/06/01 23:34:44;;;;;;;1.83;1.20;;;;;;;;;;20913754;28;20477;-68
2022/06/01 23:44:46;;;;;;;3.08;1.60;;;;;;;;;;20912129;28;20512;-65
2022/06/01 23:54:51;;;;;;;2.45;1.50;;;;;;;;;;20911382;28;20083;-62
